KGEG/GEG METAR and TAF weather

Enter ICAO airport designator
Station Type Date Time Source
KGEG METAR 2019/08/24 21:53 UTC NOAA

KGEG 242153Z 24020G25KT 10SM FEW070 FEW120 BKN200 27/05 A2986 RMK AO2 SLP092 T02720050


Station Type Date Time Source
KGEG Decoded METAR 2019/08/24 21:53 UTC NOAA

Station name not available
Aug 24, 2019 - 05:53 PM EDT / 2019.08.24 2153 UTC
Wind: from the WSW (240 degrees) at 23 MPH (20 KT) gusting to 29 MPH (25 KT):0
Visibility: 10 mile(s):0
Sky conditions: mostly cloudy
Temperature: 81.0 F (27.2 C)
Dew Point: 41.0 F (5.0 C)
Relative Humidity: 24%
Pressure (altimeter): 29.86 in. Hg (1011 hPa)
ob: KGEG 242153Z 24020G25KT 10SM FEW070 FEW120 BKN200 27/05 A2986 RMK AO2 SLP092 T02720050
cycle: 22

Station Type Date Time Source
KGEG TAF 2019/08/24 18:22 UTC NOAA

TAF KGEG 241720Z 2418/2518 23016G24KT P6SM SCT200
FM250200 23010KT P6SM SKC

Example: see airport list